Madison Maersk — OWJG2 — position and weather

sailwx.info

Track history (hours):
 
Tides and Currents Weather Stations Pressure Air Temp Water Temp Dewpoint Dewpoint Depression Visibility Wind Speed Wind Dir Waves Ship Positions

Madison Maersk

Last reported at 2018-Feb-21 16:55 UTC. Time now 2018-Feb-21 17:29 UTC.
Position N 48°01' W 006°12'.

Length 399 m; draft 13.3 m.

Type: Ship. MMSI: 219018864.

Date/timePositionNaut miles runAvg speedWind from/ knotsBaromVisibWave heightAir tempDewpointWater temp
2018-Feb-21 16:55N 48°01' W 006°12'51016.4
2018-Feb-20 09:51N 39°55' W 009°50'717.9
2018-Feb-20 09:29N 39°49' W 009°51'918.0
2018-Feb-20 09:00N 39°40' W 009°51'917.8
2018-Feb-20 08:30N 39°31' W 009°51'917.9
2018-Feb-20 08:00N 39°22' W 009°51'917.5
2018-Feb-20 07:30N 39°14' W 009°51'917.4
2018-Feb-20 07:00N 39°05' W 009°51'917.3
2018-Feb-20 06:30N 38°56' W 009°52'917.5
2018-Feb-20 06:00N 38°47' W 009°52'917.7
2018-Feb-20 05:30N 38°39' W 009°51'917.8
2018-Feb-20 05:00N 38°30' W 009°48'917.7
2018-Feb-20 04:30N 38°21' W 009°45'917.6
2018-Feb-20 04:00N 38°13' W 009°42'917.6
2018-Feb-20 03:30N 38°04' W 009°40'917.9
2018-Feb-20 03:00N 37°56' W 009°37'918.1
2018-Feb-20 02:30N 37°47' W 009°35'918.2
2018-Feb-20 02:00N 37°38' W 009°33'918.3
2018-Feb-20 01:30N 37°29' W 009°30'1418.1
2018-Feb-20 00:44N 37°16' W 009°26'418.3
2018-Feb-20 00:30N 37°11' W 009°25'2917.2
2018-Feb-19 22:49N 36°45' W 009°10'618.2
2018-Feb-19 22:31N 36°43' W 009°03'2718.1
2018-Feb-19 21:01N 36°36' W 008°31'318.4
2018-Feb-19 20:50N 36°35' W 008°27'618.4
2018-Feb-19 20:30N 36°33' W 008°19'2819.2
2018-Feb-19 19:02N 36°23' W 007°47'520.9
2018-Feb-19 18:48N 36°22' W 007°41'10321.1
2018-Feb-19 13:56N 35°58' W 005°37'921.0
2018-Feb-19 13:30N 36°01' W 005°27'1020.3
2018-Feb-19 13:01N 36°03' W 005°14'90022.3
2018-Feb-17 20:43N 36°46' E 013°22'1522.6
2018-Feb-17 20:03N 36°41' E 013°40'122.3
2018-Feb-17 20:00N 36°41' E 013°42'1122.6
2018-Feb-17 19:30N 36°38' E 013°55'1122.6
2018-Feb-17 19:00N 36°34' E 014°09'1122.6
2018-Feb-17 18:30N 36°30' E 014°22'1122.3
2018-Feb-17 18:00N 36°27' E 014°35'1122.1
2018-Feb-17 17:30N 36°23' E 014°48'  
Track history (hours):
 
Tides and Currents Weather Stations Pressure Air Temp Water Temp Dewpoint Dewpoint Depression Visibility Wind Speed Wind Dir Waves Ship Positions

Madison Maersk

Last reported at 2018-Feb-21 16:55 UTC. Time now 2018-Feb-21 17:29 UTC.
Position N 48°01' W 006°12'.

Length 399 m; draft 13.3 m.

Type: Ship. MMSI: 219018864.

Date/timePositionNaut miles runAvg speedWind from/ knotsBaromVisibWave heightAir tempDewpointWater temp
2018-Feb-21 16:55N 48°01' W 006°12'51016.4
2018-Feb-20 09:51N 39°55' W 009°50'717.9
2018-Feb-20 09:29N 39°49' W 009°51'918.0
2018-Feb-20 09:00N 39°40' W 009°51'917.8
2018-Feb-20 08:30N 39°31' W 009°51'917.9
2018-Feb-20 08:00N 39°22' W 009°51'917.5
2018-Feb-20 07:30N 39°14' W 009°51'917.4
2018-Feb-20 07:00N 39°05' W 009°51'917.3
2018-Feb-20 06:30N 38°56' W 009°52'917.5
2018-Feb-20 06:00N 38°47' W 009°52'917.7
2018-Feb-20 05:30N 38°39' W 009°51'917.8
2018-Feb-20 05:00N 38°30' W 009°48'917.7
2018-Feb-20 04:30N 38°21' W 009°45'917.6
2018-Feb-20 04:00N 38°13' W 009°42'917.6
2018-Feb-20 03:30N 38°04' W 009°40'917.9
2018-Feb-20 03:00N 37°56' W 009°37'918.1
2018-Feb-20 02:30N 37°47' W 009°35'918.2
2018-Feb-20 02:00N 37°38' W 009°33'918.3
2018-Feb-20 01:30N 37°29' W 009°30'1418.1
2018-Feb-20 00:44N 37°16' W 009°26'418.3
2018-Feb-20 00:30N 37°11' W 009°25'2917.2
2018-Feb-19 22:49N 36°45' W 009°10'618.2
2018-Feb-19 22:31N 36°43' W 009°03'2718.1
2018-Feb-19 21:01N 36°36' W 008°31'318.4
2018-Feb-19 20:50N 36°35' W 008°27'618.4
2018-Feb-19 20:30N 36°33' W 008°19'2819.2
2018-Feb-19 19:02N 36°23' W 007°47'520.9
2018-Feb-19 18:48N 36°22' W 007°41'10321.1
2018-Feb-19 13:56N 35°58' W 005°37'921.0
2018-Feb-19 13:30N 36°01' W 005°27'1020.3
2018-Feb-19 13:01N 36°03' W 005°14'90022.3
2018-Feb-17 20:43N 36°46' E 013°22'1522.6
2018-Feb-17 20:03N 36°41' E 013°40'122.3
2018-Feb-17 20:00N 36°41' E 013°42'1122.6
2018-Feb-17 19:30N 36°38' E 013°55'1122.6
2018-Feb-17 19:00N 36°34' E 014°09'1122.6
2018-Feb-17 18:30N 36°30' E 014°22'1122.3
2018-Feb-17 18:00N 36°27' E 014°35'1122.1
2018-Feb-17 17:30N 36°23' E 014°48'  

Dump ship's entire track history